Terminal Aerodrome Forecast
Issued by NWS

Home | Current Version | Previous Version | Text Only | Print | Product List | Glossary On
Versions: 1 2 3 4 5 6 7 8 9 10 11 12 13 14 15 16 17 18 19 20 21
000
FTUS42 KMLB 011615 AAB
TAFLEE
TAF AMD
KLEE 011615Z 0116/0212 24011G18KT P6SM VCSH SCT030 BKN050 OVC100
      TEMPO 0116/0118 4SM TSRA BKN030CB OVC050
     FM020000 20005KT P6SM FEW025 BKN150 BKN250=

USA.gov is the U.S. government's official web portal to all federal, state and local government web resources and services.